Time;durP1;ratioP1;P1;durP2;ratioP2;P2;SDS_P1;SDS_P2;PMS_P1;PMS_P2;Temp;Humidity;BMP_temperature;BMP_pressure;BME280_temperature;BME280_humidity;BME280_pressure;Samples;Min_cycle;Max_cycle;Signal;HPM_P1;HPM_P2
2023/10/08 00:00:46;;;;;;;6.90;1.70;;;;;;;17.48;62.14;98602.75;134889;1264;22542;-65
2023/10/08 00:04:10;;;;;;;6.80;1.60;;;;;;;17.44;62.20;98597.05;134967;1282;22542;-65
2023/10/08 00:07:12;;;;;;;4.80;1.50;;;;;;;17.33;62.71;98612.47;134970;1283;25260;-65
2023/10/08 00:10:15;;;;;;;7.20;1.60;;;;;;;17.31;62.82;98607.92;134984;1283;22538;-65
2023/10/08 00:13:18;;;;;;;6.00;1.50;;;;;;;17.50;62.06;98606.55;134991;1283;25419;-64
2023/10/08 00:16:21;;;;;;;9.00;2.20;;;;;;;17.49;62.11;98611.05;134932;1283;25262;-65
2023/10/08 00:19:24;;;;;;;8.80;1.70;;;;;;;17.32;62.91;98625.67;134959;1283;22552;-65
2023/10/08 00:22:28;;;;;;;5.80;1.30;;;;;;;17.21;63.10;98632.81;134972;1283;22610;-65
2023/10/08 00:25:33;;;;;;;8.50;1.70;;;;;;;17.32;62.33;98626.25;134986;1264;24296;-65
2023/10/08 00:28:35;;;;;;;5.50;1.70;;;;;;;17.26;62.69;98638.09;134908;1283;22544;-65
2023/10/08 00:31:40;;;;;;;5.40;1.40;;;;;;;17.10;63.31;98633.67;134986;1283;22555;-65
2023/10/08 00:34:43;;;;;;;8.70;1.60;;;;;;;17.04;63.47;98620.46;134938;1283;23010;-62
2023/10/08 00:37:45;;;;;;;;;;;;;;;17.15;62.76;98607.14;134961;1282;22518;-65
2023/10/08 00:40:49;;;;;;;5.70;1.60;;;;;;;16.94;62.99;98615.19;134972;1283;22539;-65
2023/10/08 00:43:54;;;;;;;8.40;1.50;;;;;;;16.89;63.21;98623.70;134962;1282;24362;-65
2023/10/08 00:47:00;;;;;;;6.00;1.20;;;;;;;16.85;63.39;98619.48;134993;1283;22544;-65
2023/10/08 00:50:08;;;;;;;6.90;1.60;;;;;;;16.88;63.23;98615.73;134974;1282;24389;-63
2023/10/08 00:53:20;;;;;;;6.10;1.70;;;;;;;16.78;63.10;98618.51;135020;1282;22539;-65
2023/10/08 00:56:25;;;;;;;;;;;;;;;16.66;63.43;98617.84;135007;1283;25470;-63
2023/10/08 00:59:33;;;;;;;5.90;1.50;;;;;;;16.60;63.40;98624.56;134998;1282;22549;-65
2023/10/08 01:02:45;;;;;;;5.40;1.30;;;;;;;16.67;63.39;98626.44;134970;1283;22632;-66
2023/10/08 01:05:48;;;;;;;5.60;1.30;;;;;;;16.75;63.19;98636.79;134971;1282;22541;-65
2023/10/08 01:08:57;;;;;;;;;;;;;;;16.67;63.44;98632.04;134949;1282;22530;-65
2023/10/08 01:12:06;;;;;;;4.00;0.90;;;;;;;16.56;63.60;98632.27;134960;1283;22555;-66
2023/10/08 01:15:16;;;;;;;9.30;1.50;;;;;;;16.51;63.68;98623.68;134942;1282;25366;-65
2023/10/08 01:18:28;;;;;;;5.60;1.30;;;;;;;16.53;63.64;98606.11;134987;1282;22580;-65
2023/10/08 01:21:39;;;;;;;8.60;1.60;;;;;;;16.46;63.65;98613.38;135031;1282;22533;-66
2023/10/08 01:24:43;;;;;;;6.90;1.20;;;;;;;16.51;63.61;98603.45;135030;1283;22553;-65
2023/10/08 01:27:46;;;;;;;7.80;1.60;;;;;;;16.49;63.81;98617.23;135026;1283;25270;-65
2023/10/08 01:30:53;;;;;;;7.30;1.20;;;;;;;16.48;63.97;98624.16;135009;1282;22539;-65
2023/10/08 01:33:56;;;;;;;6.90;1.30;;;;;;;16.47;64.17;98628.52;135003;1283;22551;-64
2023/10/08 01:37:03;;;;;;;6.40;1.40;;;;;;;16.47;64.60;98636.98;135017;1283;22540;-64
2023/10/08 01:40:06;;;;;;;6.60;1.20;;;;;;;16.62;63.74;98629.60;135008;1283;22548;-65
2023/10/08 01:43:09;;;;;;;6.50;1.50;;;;;;;16.55;63.95;98617.52;134941;1282;23195;-65
2023/10/08 01:46:12;;;;;;;10.30;1.70;;;;;;;16.59;63.89;98604.69;134969;1283;25272;-66
2023/10/08 01:49:15;;;;;;;8.30;1.80;;;;;;;16.60;63.93;98609.37;134988;1282;22544;-65
2023/10/08 01:52:21;;;;;;;9.90;2.00;;;;;;;16.63;63.85;98614.56;134981;1282;22542;-66
2023/10/08 01:55:24;;;;;;;9.50;2.00;;;;;;;16.61;63.93;98611.35;134994;1282;22531;-66
2023/10/08 01:58:26;;;;;;;6.70;1.20;;;;;;;16.57;64.05;98610.28;134971;1283;22551;-65
2023/10/08 02:01:29;;;;;;;7.10;1.50;;;;;;;16.53;64.37;98617.72;135010;1283;22546;-65
2023/10/08 02:04:33;;;;;;;5.60;1.30;;;;;;;16.48;64.51;98623.83;135008;1283;22555;-65
2023/10/08 02:07:35;;;;;;;10.20;1.50;;;;;;;16.44;65.06;98623.64;135009;1283;22536;-65
2023/10/08 02:10:38;;;;;;;12.20;1.90;;;;;;;16.44;65.03;98615.51;135007;1283;25267;-65
2023/10/08 02:13:40;;;;;;;;;;;;;;;16.41;65.15;98608.20;135018;1283;22533;-65
2023/10/08 02:16:43;;;;;;;8.70;1.40;;;;;;;16.44;64.67;98594.02;135006;1283;22611;-65
2023/10/08 02:19:45;;;;;;;9.00;1.70;;;;;;;16.32;65.35;98598.20;135019;1282;22537;-65
2023/10/08 02:22:49;;;;;;;;;;;;;;;16.44;64.92;98597.34;134968;1282;23309;-64
2023/10/08 02:25:51;;;;;;;8.70;1.90;;;;;;;16.35;65.13;98598.48;134933;1283;22554;-64
2023/10/08 02:28:54;;;;;;;8.10;1.70;;;;;;;16.48;64.67;98595.06;134998;1282;22540;-64
2023/10/08 02:31:56;;;;;;;7.90;1.80;;;;;;;16.52;64.41;98593.44;134988;1282;22547;-65
2023/10/08 02:34:59;;;;;;;9.70;2.20;;;;;;;16.59;64.03;98593.73;134936;1281;22548;-66
2023/10/08 02:38:01;;;;;;;;;;;;;;;16.51;64.36;98580.71;135020;1283;22527;-65
2023/10/08 02:41:06;;;;;;;6.20;1.60;;;;;;;16.47;64.65;98570.64;134959;1282;22596;-66
2023/10/08 02:44:11;;;;;;;8.00;2.10;;;;;;;16.52;64.25;98578.95;135003;1283;26716;-65
2023/10/08 02:47:16;;;;;;;9.00;1.90;;;;;;;16.56;64.19;98592.53;134982;1282;22563;-64
2023/10/08 02:50:19;;;;;;;9.00;2.00;;;;;;;16.71;63.56;98600.40;135003;1283;22533;-65
2023/10/08 02:53:25;;;;;;;;;;;;;;;16.56;64.13;98607.96;135049;1282;22615;-65
2023/10/08 02:56:32;;;;;;;4.60;1.30;;;;;;;16.55;64.21;98628.83;135007;1282;22544;-66
2023/10/08 02:59:40;;;;;;;6.80;1.50;;;;;;;16.37;65.31;98637.88;135044;1283;22556;-63
2023/10/08 03:02:42;;;;;;;7.50;1.60;;;;;;;16.50;64.57;98643.77;134978;1282;22545;-66
2023/10/08 03:05:46;;;;;;;9.60;1.60;;;;;;;16.50;64.64;98642.34;135010;1283;22527;-64
2023/10/08 03:08:48;;;;;;;9.60;1.60;;;;;;;16.49;64.35;98642.08;135014;1283;25436;-65
2023/10/08 03:11:50;;;;;;;9.50;1.50;;;;;;;16.45;64.25;98643.31;135009;1282;22529;-65
2023/10/08 03:15:12;;;;;;;9.80;1.50;;;;;;;16.31;65.11;98658.67;135038;1283;22532;-66
2023/10/08 03:18:15;;;;;;;7.90;1.50;;;;;;;16.31;65.09;98679.02;134977;1283;23459;-65
2023/10/08 03:21:21;;;;;;;9.10;1.40;;;;;;;16.25;65.36;98680.99;135008;1263;24236;-66
2023/10/08 03:24:38;;;;;;;8.70;1.60;;;;;;;16.26;65.07;98687.85;134999;1283;22591;-64
2023/10/08 03:27:42;;;;;;;7.50;1.20;;;;;;;16.34;64.30;98690.70;134964;1282;22544;-66
2023/10/08 03:31:02;;;;;;;8.90;1.40;;;;;;;16.27;64.61;98706.14;135029;1283;24267;-66
2023/10/08 03:34:06;;;;;;;6.90;1.30;;;;;;;16.15;65.06;98717.52;134999;1282;22546;-63
2023/10/08 03:37:08;;;;;;;11.40;1.80;;;;;;;16.26;64.56;98717.10;134965;1282;26539;-64
2023/10/08 03:40:25;;;;;;;9.30;2.00;;;;;;;16.09;65.09;98711.84;135041;1282;22574;-66
2023/10/08 03:43:42;;;;;;;9.80;1.60;;;;;;;16.22;64.60;98702.45;135026;1282;22543;-66
2023/10/08 03:46:46;;;;;;;10.00;1.30;;;;;;;16.10;65.08;98702.77;135057;1282;22542;-60
2023/10/08 03:49:51;;;;;;;13.10;1.80;;;;;;;16.14;64.81;98709.19;135073;1283;22546;-65
2023/10/08 03:52:55;;;;;;;11.10;2.10;;;;;;;16.15;64.91;98707.52;135007;1282;22542;-66
2023/10/08 03:56:00;;;;;;;9.20;2.10;;;;;;;16.11;64.85;98707.80;135016;1283;22529;-66
2023/10/08 03:59:12;;;;;;;11.70;2.30;;;;;;;16.16;64.96;98716.20;135026;1283;25442;-63
2023/10/08 04:02:32;;;;;;;10.40;1.80;;;;;;;16.20;64.59;98709.69;135021;1282;22555;-65
2023/10/08 04:05:44;;;;;;;14.10;2.10;;;;;;;16.31;64.02;98708.79;135025;1282;25254;-65
2023/10/08 04:08:58;;;;;;;10.70;2.00;;;;;;;16.28;64.22;98726.81;135037;1283;22532;-62
2023/10/08 04:12:08;;;;;;;12.30;1.80;;;;;;;16.29;64.09;98728.52;135002;1283;22537;-65
2023/10/08 04:15:12;;;;;;;11.70;2.00;;;;;;;16.38;63.65;98728.86;135005;1282;22553;-65
2023/10/08 04:18:14;;;;;;;12.00;2.10;;;;;;;16.37;63.62;98733.27;135024;1283;22529;-65
2023/10/08 04:21:20;;;;;;;11.70;2.30;;;;;;;16.41;63.21;98744.08;135003;1283;22562;-64
2023/10/08 04:24:28;;;;;;;12.00;2.20;;;;;;;16.34;63.47;98736.55;135025;1282;22542;-65
2023/10/08 04:27:33;;;;;;;12.90;2.20;;;;;;;16.26;63.73;98720.66;135027;1283;22544;-65
2023/10/08 04:30:36;;;;;;;15.20;2.40;;;;;;;16.26;64.05;98738.69;135018;1283;22536;-65
2023/10/08 04:33:38;;;;;;;11.30;2.40;;;;;;;16.20;64.42;98760.38;135022;1282;22533;-64
2023/10/08 04:36:41;;;;;;;10.70;2.30;;;;;;;16.16;64.64;98763.30;134997;1282;22546;-65
2023/10/08 04:39:54;;;;;;;13.20;2.90;;;;;;;16.25;64.70;98764.36;135051;1282;25418;-65
2023/10/08 04:43:01;;;;;;;12.30;2.50;;;;;;;16.17;65.22;98769.44;135037;1282;22528;-64
2023/10/08 04:46:07;;;;;;;16.40;3.10;;;;;;;16.16;65.10;98766.49;135012;1283;26889;-65
2023/10/08 04:49:23;;;;;;;10.90;2.30;;;;;;;16.22;64.82;98760.67;135049;1283;22550;-65
2023/10/08 04:52:27;;;;;;;15.90;3.10;;;;;;;16.18;65.11;98765.77;135000;1283;22562;-65
2023/10/08 04:55:30;;;;;;;13.00;2.80;;;;;;;16.28;64.36;98776.63;135055;1282;25682;-65
2023/10/08 04:58:40;;;;;;;15.60;2.60;;;;;;;16.26;64.65;98789.25;135058;1283;22685;-65
2023/10/08 05:01:48;;;;;;;14.00;3.00;;;;;;;16.19;65.05;98798.17;135050;1283;25502;-64
2023/10/08 05:05:07;;;;;;;14.60;3.00;;;;;;;16.07;65.74;98797.45;135042;1282;22536;-64
2023/10/08 05:08:28;;;;;;;12.10;3.20;;;;;;;16.08;66.10;98813.90;134991;1283;22533;-64
2023/10/08 05:11:46;;;;;;;14.10;2.90;;;;;;;16.11;65.28;98828.95;135039;1283;22527;-65
2023/10/08 05:15:21;;;;;;;15.10;3.00;;;;;;;16.07;63.37;98818.76;135050;1282;25385;-64
2023/10/08 05:18:37;;;;;;;12.70;3.00;;;;;;;16.14;63.54;98810.59;135033;1282;23294;-66
2023/10/08 05:21:51;;;;;;;13.60;2.90;;;;;;;16.16;62.92;98817.80;135024;1282;22563;-64
2023/10/08 05:25:07;;;;;;;11.60;2.80;;;;;;;16.22;63.28;98820.00;135026;1283;22529;-64
2023/10/08 05:28:11;;;;;;;8.80;2.60;;;;;;;16.38;62.61;98822.69;135042;1282;25404;-64
2023/10/08 05:31:31;;;;;;;13.70;2.90;;;;;;;16.45;62.19;98818.02;135042;1282;24383;-64
2023/10/08 05:34:42;;;;;;;12.60;2.90;;;;;;;16.56;61.53;98830.67;135058;1282;22544;-64
2023/10/08 05:37:52;;;;;;;13.30;3.40;;;;;;;16.52;61.61;98843.86;135060;1282;25376;-64
2023/10/08 05:41:27;;;;;;;11.70;3.20;;;;;;;16.55;61.79;98835.32;135036;1282;22558;-64
2023/10/08 05:44:39;;;;;;;12.60;3.20;;;;;;;16.59;61.68;98843.34;135007;1282;22536;-63
2023/10/08 05:48:06;;;;;;;12.00;2.70;;;;;;;16.62;61.70;98850.99;135044;1283;25420;-64
2023/10/08 05:51:13;;;;;;;9.40;2.70;;;;;;;16.65;61.77;98846.91;135027;1283;22540;-65
2023/10/08 05:54:36;;;;;;;8.50;2.90;;;;;;;16.65;61.80;98854.65;134979;1282;22564;-64
2023/10/08 05:57:46;;;;;;;12.30;2.90;;;;;;;16.46;62.77;98882.36;135002;1282;23258;-64
2023/10/08 06:01:09;;;;;;;13.60;3.10;;;;;;;16.41;63.32;98898.48;135039;1283;26721;-63
2023/10/08 06:04:42;;;;;;;11.70;2.70;;;;;;;16.50;63.34;98904.92;135042;1282;22566;-65
2023/10/08 06:07:56;;;;;;;10.70;2.80;;;;;;;16.68;62.80;98922.56;135031;1283;22543;-64
2023/10/08 06:11:00;;;;;;;12.90;3.10;;;;;;;16.87;62.30;98935.41;135027;1282;22545;-64
2023/10/08 06:14:13;;;;;;;12.60;3.50;;;;;;;17.03;61.63;98945.02;135031;1282;22551;-63
2023/10/08 06:17:33;;;;;;;16.10;3.90;;;;;;;17.15;61.35;98941.38;135043;1282;22659;-64
2023/10/08 06:20:39;;;;;;;11.70;3.20;;;;;;;17.29;61.13;98942.63;134951;1259;22536;-63
2023/10/08 06:23:42;;;;;;;14.20;3.40;;;;;;;17.20;61.62;98952.52;134960;1282;22580;-64
2023/10/08 06:26:48;;;;;;;13.80;3.40;;;;;;;17.30;60.92;98966.21;134975;1283;23433;-64
2023/10/08 06:29:50;;;;;;;12.10;3.00;;;;;;;17.40;60.74;98976.15;134993;1283;22796;-63
2023/10/08 06:32:54;;;;;;;11.70;3.40;;;;;;;17.49;60.28;98975.38;134992;1283;22521;-63
2023/10/08 06:36:02;;;;;;;12.40;3.80;;;;;;;17.72;60.23;98978.33;135047;1283;22573;-65
2023/10/08 06:39:11;;;;;;;14.40;3.40;;;;;;;17.71;60.20;98985.61;135029;1283;25382;-64
2023/10/08 06:42:14;;;;;;;10.80;3.20;;;;;;;17.77;59.62;98991.66;135038;1283;22543;-64
2023/10/08 06:45:16;;;;;;;14.10;3.10;;;;;;;17.83;58.52;98999.98;135054;1283;25508;-64
2023/10/08 06:48:20;;;;;;;17.50;5.00;;;;;;;17.94;58.74;99010.16;135039;1282;22527;-64
2023/10/08 06:51:25;;;;;;;16.30;4.50;;;;;;;18.14;58.33;99018.80;134995;1283;87962;-65
2023/10/08 06:54:30;;;;;;;12.40;3.90;;;;;;;18.11;58.37;99020.91;135035;1282;22543;-64
2023/10/08 06:57:32;;;;;;;16.60;4.00;;;;;;;18.05;56.44;99039.98;135051;1282;23899;-64
2023/10/08 07:00:39;;;;;;;18.90;4.90;;;;;;;17.90;55.95;99049.05;135066;1282;22533;-65
2023/10/08 07:03:42;;;;;;;16.60;4.60;;;;;;;17.91;56.38;99043.30;135087;1283;22543;-62
2023/10/08 07:06:46;;;;;;;;;;;;;;;18.01;56.49;99045.80;135056;1283;22532;-64
2023/10/08 07:09:51;;;;;;;16.00;4.40;;;;;;;18.04;56.00;99053.66;135053;1283;22532;-65
2023/10/08 07:12:53;;;;;;;15.30;4.20;;;;;;;18.14;55.72;99062.77;135062;1282;22565;-64
2023/10/08 07:15:56;;;;;;;17.50;4.20;;;;;;;18.20;54.20;99075.45;135071;1283;22639;-65
2023/10/08 07:19:02;;;;;;;17.60;3.90;;;;;;;18.43;53.46;99081.02;135073;1268;22574;-65
2023/10/08 07:22:06;;;;;;;16.80;4.10;;;;;;;18.54;52.24;99081.28;135093;1283;22544;-65
2023/10/08 07:25:09;;;;;;;15.70;3.70;;;;;;;18.62;52.63;99072.61;135043;1281;22544;-63
2023/10/08 07:28:12;;;;;;;;;;;;;;;18.88;52.43;99084.23;135043;1283;22514;-65
2023/10/08 07:31:16;;;;;;;;;;;;;;;19.16;52.76;99090.39;135085;1283;22520;-65
2023/10/08 07:34:18;;;;;;;14.40;3.50;;;;;;;19.13;50.82;99102.54;135075;1283;22539;-65
2023/10/08 07:37:21;;;;;;;13.20;3.60;;;;;;;18.92;51.75;99102.65;135033;1283;25430;-64
2023/10/08 07:40:27;;;;;;;;;;;;;;;18.46;50.61;99123.94;135046;1283;22531;-65
2023/10/08 07:43:32;;;;;;;14.50;4.10;;;;;;;17.82;49.52;99127.40;135041;1282;22552;-64
2023/10/08 07:46:34;;;;;;;17.00;3.80;;;;;;;17.30;50.55;99142.08;135026;1282;22543;-65
2023/10/08 07:49:37;;;;;;;13.00;3.40;;;;;;;17.15;51.46;99146.77;135010;1283;22536;-66
2023/10/08 07:52:39;;;;;;;13.50;3.60;;;;;;;17.28;51.63;99154.19;135046;1283;22537;-66
2023/10/08 07:55:43;;;;;;;15.90;4.10;;;;;;;17.66;51.58;99156.71;135073;1283;22541;-66
2023/10/08 07:58:47;;;;;;;15.70;3.30;;;;;;;17.88;49.40;99169.72;135053;1283;22545;-64
2023/10/08 08:01:49;;;;;;;12.00;2.70;;;;;;;18.05;48.14;99176.95;135003;1283;22563;-66
2023/10/08 08:04:54;;;;;;;9.70;2.90;;;;;;;18.07;47.92;99184.21;135041;1283;25332;-65
2023/10/08 08:07:59;;;;;;;8.20;2.70;;;;;;;18.29;47.92;99188.27;135008;1283;22549;-65
2023/10/08 08:11:06;;;;;;;8.30;2.70;;;;;;;18.29;46.45;99187.45;135040;1282;23252;-65
2023/10/08 08:14:09;;;;;;;12.70;2.80;;;;;;;18.44;47.27;99189.83;135012;1282;22538;-65
2023/10/08 08:17:15;;;;;;;9.50;2.90;;;;;;;18.47;46.57;99195.91;135042;1282;22530;-65
2023/10/08 08:20:34;;;;;;;9.80;2.40;;;;;;;18.63;47.62;99198.39;135033;1282;22542;-64
2023/10/08 08:23:36;;;;;;;10.70;2.50;;;;;;;18.85;46.49;99199.67;135055;1283;22539;-65
2023/10/08 08:26:44;;;;;;;;;;;;;;;18.82;43.57;99211.97;135057;1283;22520;-65
2023/10/08 08:29:48;;;;;;;9.40;2.30;;;;;;;18.74;43.10;99208.94;135069;1282;26639;-66
2023/10/08 08:32:51;;;;;;;7.80;2.10;;;;;;;18.66;43.31;99216.06;135062;1283;22560;-66
2023/10/08 08:35:54;;;;;;;10.80;2.40;;;;;;;18.45;42.96;99217.89;135040;1283;22544;-65
2023/10/08 08:38:56;;;;;;;9.50;2.10;;;;;;;18.14;43.55;99227.63;135103;1283;22562;-66
2023/10/08 08:41:58;;;;;;;9.50;2.00;;;;;;;17.81;42.11;99241.61;135024;1283;22536;-65
2023/10/08 08:45:01;;;;;;;7.20;1.80;;;;;;;17.76;42.47;99225.04;135069;1283;22544;-64
2023/10/08 08:48:04;;;;;;;6.50;1.70;;;;;;;17.93;42.48;99236.82;135068;1282;22536;-65
2023/10/08 08:51:09;;;;;;;6.50;2.00;;;;;;;18.38;42.88;99228.73;135096;1282;24330;-65
2023/10/08 08:54:14;;;;;;;9.30;2.00;;;;;;;18.53;42.31;99223.19;135073;1283;23903;-66
2023/10/08 08:57:17;;;;;;;11.00;1.50;;;;;;;18.30;39.64;99232.13;135090;1283;22566;-65
2023/10/08 09:00:19;;;;;;;4.70;1.20;;;;;;;18.35;38.64;99232.73;135099;1282;22526;-65
2023/10/08 09:03:30;;;;;;;;;;;;;;;18.44;39.16;99231.59;135096;1282;22508;-65
2023/10/08 09:06:33;;;;;;;6.80;1.20;;;;;;;18.80;39.69;99240.82;135064;1283;22584;-66
2023/10/08 09:09:39;;;;;;;;;;;;;;;19.14;39.21;99241.23;135111;1282;22520;-65
2023/10/08 09:12:41;;;;;;;4.30;1.10;;;;;;;19.20;38.63;99244.28;135085;1282;22533;-65
2023/10/08 09:15:45;;;;;;;9.40;1.60;;;;;;;18.86;36.79;99248.89;135080;1283;26548;-65
2023/10/08 09:18:47;;;;;;;6.10;1.30;;;;;;;18.70;36.10;99246.69;135045;1283;22557;-65
2023/10/08 09:21:50;;;;;;;7.10;1.70;;;;;;;18.82;37.71;99249.38;135111;1282;22558;-65
2023/10/08 09:24:52;;;;;;;5.70;1.00;;;;;;;19.07;38.56;99253.61;135088;1283;22543;-66
2023/10/08 09:27:55;;;;;;;10.20;1.40;;;;;;;19.04;37.51;99267.66;135100;1283;22533;-65
2023/10/08 09:30:58;;;;;;;5.50;1.20;;;;;;;19.04;37.17;99271.55;135085;1283;22539;-65
2023/10/08 09:34:02;;;;;;;7.80;1.70;;;;;;;18.87;36.00;99279.77;135075;1283;22787;-65
2023/10/08 09:37:04;;;;;;;5.90;1.40;;;;;;;18.24;34.33;99298.30;135092;1282;22539;-65
2023/10/08 09:40:08;;;;;;;4.80;1.00;;;;;;;18.16;33.43;99300.55;135086;1283;22537;-65
2023/10/08 09:43:11;;;;;;;9.00;1.50;;;;;;;18.48;34.34;99295.94;135108;1282;22567;-63
2023/10/08 09:46:14;;;;;;;;;;;;;;;18.52;33.18;99305.28;135097;1282;22541;-65
2023/10/08 09:49:18;;;;;;;;;;;;;;;18.51;33.82;99291.05;135113;1283;22510;-65
2023/10/08 09:52:21;;;;;;;5.90;1.30;;;;;;;18.51;33.08;99311.17;135098;1283;22533;-66
2023/10/08 09:55:23;;;;;;;7.70;1.10;;;;;;;18.57;33.79;99303.05;135075;1282;25433;-65
2023/10/08 09:58:26;;;;;;;;;;;;;;;18.60;34.20;99312.57;135071;1283;22518;-65
2023/10/08 10:01:28;;;;;;;8.30;1.40;;;;;;;18.42;33.51;99328.67;135059;1282;22559;-64
2023/10/08 10:04:31;;;;;;;;;;;;;;;18.23;33.57;99324.09;135102;1283;25325;-64
2023/10/08 10:07:34;;;;;;;5.90;1.30;;;;;;;18.24;33.21;99330.55;135094;1262;24053;-66
2023/10/08 10:10:38;;;;;;;6.30;1.30;;;;;;;18.17;34.35;99333.77;135112;1282;22532;-65
2023/10/08 10:13:40;;;;;;;4.40;1.00;;;;;;;18.23;33.78;99334.69;135091;1283;22536;-64
2023/10/08 10:16:45;;;;;;;6.00;1.20;;;;;;;18.34;33.09;99341.36;135076;1283;25505;-64
2023/10/08 10:19:48;;;;;;;4.50;1.40;;;;;;;18.38;33.20;99343.86;135072;1283;26648;-65
2023/10/08 10:22:52;;;;;;;5.80;1.10;;;;;;;18.38;34.11;99333.95;135091;1283;25431;-64
2023/10/08 10:25:55;;;;;;;7.20;1.30;;;;;;;18.39;34.39;99339.34;135081;1282;22533;-64
2023/10/08 10:28:57;;;;;;;;;;;;;;;18.50;33.86;99351.46;135132;1283;22507;-65
2023/10/08 10:32:00;;;;;;;5.00;1.10;;;;;;;18.35;32.06;99356.63;135098;1283;22550;-65
2023/10/08 10:35:05;;;;;;;6.00;1.50;;;;;;;18.38;32.81;99337.13;135082;1283;22549;-65
2023/10/08 10:38:07;;;;;;;8.40;1.30;;;;;;;18.33;31.89;99345.52;135051;1283;22548;-65
2023/10/08 10:41:10;;;;;;;;;;;;;;;18.27;32.41;99333.59;135089;1283;24204;-65
2023/10/08 10:44:13;;;;;;;7.10;1.80;;;;;;;18.46;33.77;99333.61;135066;1283;22539;-64
2023/10/08 10:47:27;;;;;;;7.00;1.40;;;;;;;18.57;32.85;99337.45;135061;1283;25426;-64
2023/10/08 10:50:31;;;;;;;9.10;1.60;;;;;;;18.40;32.16;99345.30;135076;1283;22551;-62
2023/10/08 10:53:34;;;;;;;7.50;1.30;;;;;;;18.32;32.22;99346.67;135116;1283;22543;-65
2023/10/08 10:56:42;;;;;;;4.40;1.30;;;;;;;18.34;32.20;99346.68;135083;1283;22593;-63
2023/10/08 10:59:53;;;;;;;4.60;1.40;;;;;;;18.36;32.31;99331.13;135071;1283;22549;-64
2023/10/08 11:02:59;;;;;;;5.70;1.40;;;;;;;18.63;32.07;99345.56;135083;1283;22532;-64
2023/10/08 11:06:05;;;;;;;4.90;1.70;;;;;;;18.02;30.61;99362.11;135085;1283;22543;-64
2023/10/08 11:09:14;;;;;;;4.20;1.20;;;;;;;17.97;30.51;99360.86;135038;1283;25410;-64
2023/10/08 11:12:22;;;;;;;7.80;1.40;;;;;;;17.98;31.39;99344.68;135072;1283;22539;-65
2023/10/08 11:15:29;;;;;;;4.10;1.10;;;;;;;18.13;31.44;99347.72;135083;1263;23600;-64
2023/10/08 11:18:32;;;;;;;6.40;1.20;;;;;;;18.31;32.05;99349.05;135082;1283;26512;-65
2023/10/08 11:21:36;;;;;;;7.20;1.30;;;;;;;18.25;31.78;99344.06;135106;1283;22546;-65
2023/10/08 11:24:42;;;;;;;8.20;1.90;;;;;;;18.34;32.23;99344.73;135104;1283;22530;-64
2023/10/08 11:27:45;;;;;;;6.30;1.50;;;;;;;18.39;31.31;99342.49;135099;1283;22539;-64
2023/10/08 11:30:51;;;;;;;5.40;1.30;;;;;;;18.43;30.89;99336.01;135086;1283;22550;-63
2023/10/08 11:33:55;;;;;;;7.30;1.50;;;;;;;18.76;31.86;99334.77;135083;1283;22576;-64
2023/10/08 11:36:57;;;;;;;5.00;1.30;;;;;;;18.83;30.35;99351.50;135070;1282;22563;-64
2023/10/08 11:40:06;;;;;;;;;;;;;;;18.54;30.63;99347.66;135074;1283;22567;-64
2023/10/08 11:43:15;;;;;;;4.70;1.10;;;;;;;18.70;30.48;99358.45;135047;1283;25507;-64
2023/10/08 11:46:18;;;;;;;9.60;1.70;;;;;;;18.57;30.84;99363.49;135052;1283;22530;-65
2023/10/08 11:49:25;;;;;;;6.00;1.60;;;;;;;18.75;30.63;99354.88;135084;1283;22544;-64
2023/10/08 11:52:27;;;;;;;3.70;1.20;;;;;;;19.00;30.19;99366.69;135140;1283;24051;-65
2023/10/08 11:55:30;;;;;;;;;;;;;;;18.91;29.16;99360.73;135098;1283;22525;-65
2023/10/08 11:58:37;;;;;;;5.50;1.20;;;;;;;18.84;29.14;99362.21;135027;1283;22566;-64
2023/10/08 12:01:42;;;;;;;6.00;1.10;;;;;;;19.02;28.70;99353.42;135055;1283;22537;-64
2023/10/08 12:04:47;;;;;;;5.80;1.40;;;;;;;18.98;29.00;99357.80;135064;1283;22525;-65
2023/10/08 12:07:50;;;;;;;6.00;1.20;;;;;;;19.10;28.74;99358.75;135087;1282;25230;-63
2023/10/08 12:10:54;;;;;;;3.00;1.10;;;;;;;19.09;28.79;99364.38;135097;1282;22552;-64
2023/10/08 12:13:56;;;;;;;7.20;1.60;;;;;;;18.97;28.11;99363.59;135096;1283;22536;-64
2023/10/08 12:17:00;;;;;;;6.40;1.40;;;;;;;19.15;28.78;99359.35;135076;1264;22538;-65
2023/10/08 12:20:12;;;;;;;6.60;1.20;;;;;;;19.23;29.70;99360.49;135069;1283;22612;-64
2023/10/08 12:23:24;;;;;;;5.80;1.30;;;;;;;19.44;27.81;99359.61;135037;1283;22593;-65
2023/10/08 12:26:27;;;;;;;5.30;1.10;;;;;;;19.31;28.84;99362.20;135085;1282;22542;-63
2023/10/08 12:29:32;;;;;;;;;;;;;;;19.44;27.56;99366.00;135083;1282;22507;-65
2023/10/08 12:32:37;;;;;;;7.20;1.70;;;;;;;19.10;27.23;99373.95;135036;1282;22544;-64
2023/10/08 12:35:39;;;;;;;5.20;1.40;;;;;;;19.13;27.19;99368.23;135071;1283;22553;-64
2023/10/08 12:38:42;;;;;;;;;;;;;;;19.11;27.59;99367.38;135034;1283;22655;-64
2023/10/08 12:41:44;;;;;;;6.70;1.40;;;;;;;19.16;27.95;99374.50;135032;1282;22548;-63
2023/10/08 12:44:48;;;;;;;6.20;1.30;;;;;;;19.01;26.38;99395.49;135054;1283;22715;-64
2023/10/08 12:47:50;;;;;;;4.70;1.20;;;;;;;18.93;26.15;99402.89;135044;1283;22555;-65
2023/10/08 12:50:57;;;;;;;;;;;;;;;18.89;26.51;99396.19;135066;1283;22517;-65
2023/10/08 12:54:03;;;;;;;5.40;1.40;;;;;;;18.83;26.42;99401.09;135050;1283;22537;-65
2023/10/08 12:57:08;;;;;;;6.80;1.40;;;;;;;18.75;25.61;99402.30;135023;1283;22559;-64
2023/10/08 13:00:11;;;;;;;6.90;1.20;;;;;;;18.84;25.82;99408.85;134998;1282;22565;-63
2023/10/08 13:03:22;;;;;;;;;;;;;;;18.94;26.10;99402.52;135049;1283;22534;-63
2023/10/08 13:06:28;;;;;;;4.60;1.20;;;;;;;19.10;26.13;99401.82;135036;1282;22560;-65
2023/10/08 13:09:31;;;;;;;8.10;1.40;;;;;;;19.10;26.02;99390.63;135039;1283;24386;-64
2023/10/08 13:12:34;;;;;;;5.50;1.10;;;;;;;19.29;26.27;99391.23;135050;1283;24256;-65
2023/10/08 13:15:36;;;;;;;;;;;;;;;19.44;26.58;99395.30;135059;1283;22523;-64
2023/10/08 13:18:43;;;;;;;6.00;1.10;;;;;;;19.46;25.76;99393.89;135026;1282;22530;-64
2023/10/08 13:21:45;;;;;;;4.40;1.20;;;;;;;19.47;26.60;99392.88;135074;1282;22556;-65
2023/10/08 13:24:48;;;;;;;6.60;1.20;;;;;;;19.38;26.42;99399.89;135072;1283;22561;-65
2023/10/08 13:27:51;;;;;;;5.50;1.40;;;;;;;19.28;26.74;99400.39;135073;1283;22537;-65
2023/10/08 13:30:54;;;;;;;4.60;1.30;;;;;;;19.23;26.58;99404.94;135035;1283;22547;-65
2023/10/08 13:33:57;;;;;;;4.80;1.30;;;;;;;19.00;26.43;99412.58;135029;1283;22539;-65
2023/10/08 13:37:03;;;;;;;5.30;1.10;;;;;;;18.78;25.84;99430.94;135042;1283;24242;-65
2023/10/08 13:40:05;;;;;;;;;;;;;;;18.72;25.99;99429.51;134960;1283;24003;-64
2023/10/08 13:43:08;;;;;;;;;;;;;;;18.57;26.51;99427.56;135017;1283;22679;-65
2023/10/08 13:46:13;;;;;;;5.60;1.40;;;;;;;18.52;26.36;99433.16;135043;1283;24110;-63
2023/10/08 13:49:16;;;;;;;8.80;1.50;;;;;;;18.57;25.99;99430.20;135033;1283;22555;-63
2023/10/08 13:52:20;;;;;;;3.40;1.00;;;;;;;18.66;26.29;99435.31;135042;1283;22536;-65
2023/10/08 13:55:25;;;;;;;7.50;1.70;;;;;;;18.74;26.50;99441.90;135004;1283;22616;-63
2023/10/08 13:58:28;;;;;;;5.70;1.30;;;;;;;18.74;26.17;99443.89;135064;1283;22590;-64
2023/10/08 14:01:33;;;;;;;4.70;1.00;;;;;;;18.55;26.93;99449.39;135040;1283;22655;-65
2023/10/08 14:04:39;;;;;;;7.70;1.50;;;;;;;18.42;27.07;99459.64;135014;1283;22540;-65
2023/10/08 14:07:44;;;;;;;6.00;1.50;;;;;;;18.35;26.59;99457.05;135073;1283;22551;-64
2023/10/08 14:10:48;;;;;;;7.20;1.40;;;;;;;18.21;26.48;99466.91;135086;1283;22584;-65
2023/10/08 14:13:51;;;;;;;5.60;1.20;;;;;;;18.24;27.04;99467.48;135036;1283;22533;-64
2023/10/08 14:16:54;;;;;;;4.90;1.40;;;;;;;18.17;26.37;99469.52;135073;1283;25508;-64
2023/10/08 14:20:06;;;;;;;7.50;1.50;;;;;;;17.90;26.76;99466.52;135045;1282;22544;-64
2023/10/08 14:23:09;;;;;;;7.50;1.30;;;;;;;17.71;27.09;99466.98;135022;1282;26560;-65
2023/10/08 14:26:15;;;;;;;5.70;1.40;;;;;;;17.68;27.26;99472.19;135041;1283;22540;-65
2023/10/08 14:29:17;;;;;;;5.20;1.60;;;;;;;17.67;27.96;99458.66;135094;1283;22538;-65